Time;durP1;ratioP1;P1;durP2;ratioP2;P2;SDS_P1;SDS_P2;PMS_P1;PMS_P2;Temp;Humidity;BMP_temperature;BMP_pressure;BME280_temperature;BME280_humidity;BME280_pressure;Samples;Min_cycle;Max_cycle;Signal;HPM_P1;HPM_P2
2022/09/24 00:01:25;;;;;;;4.47;3.17;;;15.50;54.30;;;;;;4978281;28;20057;-48
2022/09/24 00:03:53;;;;;;;5.15;3.20;;;15.40;54.30;;;;;;4982424;28;20069;-48
2022/09/24 00:06:21;;;;;;;4.80;3.30;;;15.40;54.30;;;;;;4980795;28;20054;-49
2022/09/24 00:08:50;;;;;;;6.90;3.17;;;15.40;54.40;;;;;;4983739;28;20058;-46
2022/09/24 00:11:19;;;;;;;5.38;3.22;;;15.30;54.30;;;;;;4983067;28;20062;-53
2022/09/24 00:13:47;;;;;;;4.88;3.22;;;15.40;54.40;;;;;;4964120;28;20054;-50
2022/09/24 00:16:17;;;;;;;4.32;3.22;;;15.30;54.40;;;;;;4979241;28;20054;-44
2022/09/24 00:18:45;;;;;;;4.75;3.45;;;15.30;54.50;;;;;;4982226;28;20066;-47
2022/09/24 00:21:14;;;;;;;5.60;3.28;;;15.30;54.50;;;;;;4980971;28;20051;-47
2022/09/24 00:23:41;;;;;;;4.82;3.72;;;15.30;54.60;;;;;;4983517;28;20414;-49
2022/09/24 00:28:55;;;;;;;5.75;3.80;;;15.20;54.60;;;;;;4985402;28;20061;-47
2022/09/24 00:31:24;;;;;;;6.97;4.03;;;15.30;54.70;;;;;;4980122;28;20525;-48
2022/09/24 00:33:52;;;;;;;6.22;3.85;;;15.20;54.70;;;;;;4981909;28;20058;-50
2022/09/24 00:36:20;;;;;;;6.13;3.88;;;15.20;54.80;;;;;;4977603;28;20438;-49
2022/09/24 00:38:49;;;;;;;5.10;3.60;;;15.20;54.80;;;;;;4980675;28;20058;-47
2022/09/24 00:41:18;;;;;;;7.53;4.65;;;15.20;54.90;;;;;;4980393;28;20512;-47
2022/09/24 00:43:47;;;;;;;8.73;3.75;;;15.20;54.90;;;;;;4979077;28;20085;-49
2022/09/24 00:46:19;;;;;;;6.40;3.75;;;15.10;54.90;;;;;;4977638;28;20050;-49
2022/09/24 00:48:50;;;;;;;6.47;3.97;;;15.10;55.00;;;;;;4980407;28;20517;-47
2022/09/24 00:51:20;;;;;;;5.85;4.13;;;15.10;55.10;;;;;;4980162;28;20398;-47
2022/09/24 00:53:50;;;;;;;5.82;3.88;;;15.10;55.20;;;;;;4982543;28;20054;-48
2022/09/24 00:56:21;;;;;;;4.72;3.47;;;15.10;55.30;;;;;;4977706;28;20050;-46
2022/09/24 00:58:51;;;;;;;5.68;3.95;;;15.00;55.30;;;;;;4977934;28;20093;-50
2022/09/24 01:01:20;;;;;;;5.60;4.20;;;15.10;55.40;;;;;;4976292;28;20497;-45
2022/09/24 01:03:51;;;;;;;5.32;3.75;;;15.00;55.50;;;;;;4981815;28;20061;-47
2022/09/24 01:06:18;;;;;;;4.63;3.63;;;15.00;55.50;;;;;;4979772;28;20050;-48
2022/09/24 01:08:46;;;;;;;7.50;4.15;;;15.00;55.60;;;;;;4980274;28;20352;-49
2022/09/24 01:11:33;;;;;;;7.93;3.40;;;15.00;55.50;;;;;;4981380;28;20077;-48
2022/09/24 01:14:31;;;;;;;8.63;3.80;;;15.00;55.60;;;;;;4984509;28;20062;-49
2022/09/24 01:17:04;;;;;;;6.03;3.90;;;15.00;55.60;;;;;;4982988;28;20057;-48
2022/09/24 01:20:08;;;;;;;5.53;3.83;;;15.00;55.60;;;;;;4981029;28;20046;-51
2022/09/24 01:22:43;;;;;;;;;;;15.00;55.70;;;;;;4985752;28;20049;-47
2022/09/24 01:25:19;;;;;;;5.75;3.83;;;15.10;55.50;;;;;;4983286;28;19922;-46
2022/09/24 01:28:02;;;;;;;5.28;3.55;;;15.10;55.50;;;;;;4986079;28;20057;-48
2022/09/24 01:30:37;;;;;;;5.93;3.47;;;15.10;55.60;;;;;;4982878;28;20062;-48
2022/09/24 01:33:08;;;;;;;6.35;3.90;;;15.00;55.60;;;;;;4982802;28;20070;-48
2022/09/24 01:35:38;;;;;;;5.20;3.53;;;15.00;55.70;;;;;;4983212;28;20058;-48
2022/09/24 01:38:10;;;;;;;5.80;3.92;;;15.00;55.80;;;;;;4981298;28;20371;-46
2022/09/24 01:40:39;;;;;;;6.50;3.83;;;15.00;55.80;;;;;;4984383;28;20050;-48
2022/09/24 01:43:08;;;;;;;9.85;4.35;;;15.00;55.80;;;;;;4984226;28;20066;-48
2022/09/24 01:45:39;;;;;;;7.13;4.00;;;15.00;55.90;;;;;;4982071;28;20053;-49
2022/09/24 01:48:06;;;;;;;8.90;4.35;;;15.00;55.90;;;;;;4985381;28;20051;-49
2022/09/24 01:50:42;;;;;;;5.20;3.80;;;14.90;55.90;;;;;;4986612;28;20057;-49
2022/09/24 01:53:16;;;;;;;6.82;4.38;;;15.00;56.10;;;;;;4984633;28;20398;-48
2022/09/24 01:55:49;;;;;;;7.63;3.97;;;15.00;56.10;;;;;;4982980;28;20069;-47
2022/09/24 01:58:21;;;;;;;5.70;3.83;;;15.00;56.10;;;;;;4984307;28;20604;-47
2022/09/24 02:00:56;;;;;;;7.40;4.13;;;15.00;56.10;;;;;;4982737;28;20061;-47
2022/09/24 02:03:29;;;;;;;6.30;4.60;;;15.00;56.10;;;;;;4984095;28;20514;-49
2022/09/24 02:06:02;;;;;;;5.82;4.30;;;14.90;56.10;;;;;;4984469;28;20058;-49
2022/09/24 02:08:33;;;;;;;6.53;4.07;;;14.90;56.10;;;;;;4982173;28;20510;-51
2022/09/24 02:11:06;;;;;;;7.72;4.50;;;14.90;56.10;;;;;;4985063;28;20065;-45
2022/09/24 02:13:39;;;;;;;7.28;4.60;;;14.90;56.10;;;;;;4983194;28;20065;-54
2022/09/24 02:16:10;;;;;;;6.93;4.60;;;14.90;56.10;;;;;;4980140;28;20055;-52
2022/09/24 02:18:40;;;;;;;9.35;4.60;;;14.90;56.10;;;;;;4983657;28;20059;-47
2022/09/24 02:21:11;;;;;;;6.65;4.70;;;14.90;56.10;;;;;;4977689;28;20422;-46
2022/09/24 02:23:43;;;;;;;5.93;3.97;;;14.90;56.10;;;;;;4985080;28;20846;-48
2022/09/24 02:26:11;;;;;;;6.22;4.43;;;14.80;56.10;;;;;;4983009;28;20058;-48
2022/09/24 02:28:39;;;;;;;8.23;4.22;;;14.80;56.20;;;;;;4981886;28;20050;-47
2022/09/24 02:31:13;;;;;;;5.30;4.10;;;14.80;56.20;;;;;;4985099;28;20077;-51
2022/09/24 02:36:29;;;;;;;6.93;4.45;;;14.80;56.30;;;;;;4994012;28;20065;-55
2022/09/24 02:38:56;;;;;;;7.68;4.45;;;14.80;56.30;;;;;;4986102;28;20462;-56
2022/09/24 02:41:24;;;;;;;7.60;4.20;;;14.80;56.30;;;;;;4989489;28;20483;-56
2022/09/24 02:43:52;;;;;;;8.27;4.40;;;14.80;56.40;;;;;;4988449;28;20058;-51
2022/09/24 02:46:21;;;;;;;6.93;4.68;;;14.80;56.50;;;;;;4986526;28;20516;-57
2022/09/24 02:48:48;;;;;;;8.60;4.70;;;14.70;56.40;;;;;;4988388;28;20050;-55
2022/09/24 02:51:15;;;;;;;5.43;3.88;;;14.70;56.40;;;;;;4989334;28;20069;-56
2022/09/24 02:53:42;;;;;;;6.70;4.25;;;14.70;56.40;;;;;;4990082;28;20058;-56
2022/09/24 02:56:10;;;;;;;6.40;4.38;;;14.70;56.40;;;;;;4987302;28;20050;-56
2022/09/24 02:58:37;;;;;;;5.65;4.35;;;14.70;56.50;;;;;;4988893;28;20057;-54
2022/09/24 03:01:05;;;;;;;8.27;4.72;;;14.70;56.50;;;;;;4988081;28;20050;-57
2022/09/24 03:03:33;;;;;;;4.97;4.18;;;14.70;56.50;;;;;;4990796;28;20066;-57
2022/09/24 03:06:01;;;;;;;6.05;4.10;;;14.60;56.40;;;;;;4987502;28;20061;-56
2022/09/24 03:08:29;;;;;;;6.07;3.83;;;14.60;56.50;;;;;;4989339;28;20417;-56
2022/09/24 03:10:56;;;;;;;7.15;4.40;;;14.60;56.50;;;;;;4987369;28;20065;-56
2022/09/24 03:13:23;;;;;;;6.50;4.47;;;14.60;56.50;;;;;;4989900;28;20918;-54
2022/09/24 03:15:50;;;;;;;8.48;4.07;;;14.60;56.60;;;;;;4988273;28;20529;-56
2022/09/24 03:18:18;;;;;;;9.32;4.85;;;14.60;56.60;;;;;;4989342;28;20572;-56
2022/09/24 03:20:54;;;;;;;7.65;3.97;;;14.60;56.60;;;;;;4990594;28;20065;-57
2022/09/24 03:23:21;;;;;;;6.90;4.20;;;14.50;56.60;;;;;;4989268;28;20058;-56
2022/09/24 03:25:48;;;;;;;5.95;3.63;;;14.60;56.70;;;;;;4988892;28;20062;-57
2022/09/24 03:28:16;;;;;;;8.10;3.53;;;14.50;56.70;;;;;;4986640;28;20065;-57
2022/09/24 03:30:58;;;;;;;7.00;4.15;;;14.50;56.70;;;;;;4985454;28;20558;-56
2022/09/24 03:33:26;;;;;;;5.22;3.95;;;14.50;56.80;;;;;;4989048;28;20054;-52
2022/09/24 03:35:57;;;;;;;7.53;4.10;;;14.50;56.80;;;;;;4985023;28;20042;-56
2022/09/24 03:38:25;;;;;;;8.48;3.65;;;14.50;56.80;;;;;;4989552;28;20053;-56
2022/09/24 03:40:52;;;;;;;4.88;3.92;;;14.50;56.80;;;;;;4988457;28;20050;-56
2022/09/24 03:43:19;;;;;;;5.82;3.60;;;14.50;56.80;;;;;;4989167;28;20062;-54
2022/09/24 03:45:47;;;;;;;5.47;3.67;;;14.50;56.80;;;;;;4984569;28;20077;-56
2022/09/24 03:48:15;;;;;;;5.72;3.22;;;14.50;56.80;;;;;;4987223;28;20053;-54
2022/09/24 03:50:42;;;;;;;5.15;3.28;;;14.50;56.80;;;;;;4988922;28;20058;-56
2022/09/24 03:53:11;;;;;;;5.78;3.40;;;14.50;56.80;;;;;;4987841;28;20046;-56
2022/09/24 03:55:43;;;;;;;4.88;3.63;;;14.50;56.80;;;;;;4986001;28;20050;-56
2022/09/24 03:58:11;;;;;;;5.72;3.60;;;14.50;56.90;;;;;;4988359;28;20054;-56
2022/09/24 04:00:39;;;;;;;6.85;3.70;;;14.50;56.80;;;;;;4986217;28;20050;-56
2022/09/24 04:03:06;;;;;;;5.07;3.60;;;14.50;56.80;;;;;;4989806;28;20066;-56
2022/09/24 04:05:34;;;;;;;5.50;3.28;;;14.50;56.80;;;;;;4984433;28;20061;-50
2022/09/24 04:08:02;;;;;;;4.10;3.35;;;14.50;56.90;;;;;;4985190;28;22165;-57
2022/09/24 04:10:30;;;;;;;4.82;3.63;;;14.50;56.90;;;;;;4985082;28;20064;-56
2022/09/24 04:12:58;;;;;;;6.65;3.45;;;14.50;56.90;;;;;;4984810;28;20058;-57
2022/09/24 04:15:25;;;;;;;7.10;3.55;;;14.50;56.90;;;;;;4984303;28;20061;-54
2022/09/24 04:17:53;;;;;;;7.05;3.47;;;14.50;56.90;;;;;;4982318;28;20525;-53
2022/09/24 04:20:21;;;;;;;4.95;3.63;;;14.50;56.90;;;;;;4987079;28;20131;-55
2022/09/24 04:22:49;;;;;;;5.22;3.80;;;14.50;56.90;;;;;;4986749;28;20490;-57
2022/09/24 04:25:17;;;;;;;6.85;4.65;;;14.50;57.00;;;;;;4986826;28;20062;-57
2022/09/24 04:27:46;;;;;;;9.57;6.20;;;14.50;57.00;;;;;;4982847;28;20062;-56
2022/09/24 04:30:14;;;;;;;9.73;4.72;;;14.50;57.00;;;;;;4985687;28;20230;-57
2022/09/24 04:32:41;;;;;;;6.25;4.35;;;14.50;57.00;;;;;;4987603;28;20062;-49
2022/09/24 04:35:10;;;;;;;4.97;3.67;;;14.50;57.00;;;;;;4984905;28;20067;-54
2022/09/24 04:37:37;;;;;;;7.50;5.07;;;14.50;57.00;;;;;;4988247;28;20062;-56
2022/09/24 04:40:11;;;;;;;8.27;4.35;;;14.50;57.00;;;;;;4985661;28;20422;-53
2022/09/24 04:42:38;;;;;;;6.63;4.35;;;14.50;57.00;;;;;;4985697;28;20054;-57
2022/09/24 04:45:09;;;;;;;7.07;3.78;;;14.50;57.10;;;;;;4985292;28;20062;-56
2022/09/24 04:47:39;;;;;;;7.90;3.70;;;14.40;57.00;;;;;;4991390;28;20077;-56
2022/09/24 04:50:08;;;;;;;5.78;4.18;;;14.50;57.10;;;;;;4987474;28;20054;-51
2022/09/24 04:52:35;;;;;;;7.80;4.85;;;14.50;57.20;;;;;;4992329;28;20054;-53
2022/09/24 04:55:03;;;;;;;9.95;5.97;;;14.50;57.20;;;;;;4988204;28;20077;-56
2022/09/24 04:57:34;;;;;;;7.13;4.30;;;14.50;57.20;;;;;;4992806;28;20050;-53
2022/09/24 05:00:04;;;;;;;11.43;5.25;;;14.50;57.20;;;;;;4988354;28;20050;-56
2022/09/24 05:02:33;;;;;;;6.22;4.35;;;14.50;57.20;;;;;;4993153;28;20061;-55
2022/09/24 05:05:00;;;;;;;7.60;4.55;;;14.50;57.20;;;;;;4990329;28;20062;-57
2022/09/24 05:07:27;;;;;;;5.70;4.20;;;14.50;57.30;;;;;;4989615;28;20517;-56
2022/09/24 05:09:55;;;;;;;6.65;4.70;;;14.50;57.30;;;;;;4991992;28;20511;-57
2022/09/24 05:12:22;;;;;;;7.07;4.18;;;14.40;57.30;;;;;;4992322;28;20050;-55
2022/09/24 05:14:49;;;;;;;9.38;4.78;;;14.50;57.40;;;;;;4989195;28;20054;-55
2022/09/24 05:17:17;;;;;;;7.72;4.55;;;14.50;57.40;;;;;;4989626;28;20054;-57
2022/09/24 05:19:46;;;;;;;8.38;4.60;;;14.40;57.30;;;;;;4992930;28;20514;-55
2022/09/24 05:22:13;;;;;;;6.85;4.20;;;14.50;57.30;;;;;;4990731;28;20062;-56
2022/09/24 05:24:40;;;;;;;6.88;4.38;;;14.40;57.30;;;;;;4989567;28;20886;-56
2022/09/24 05:27:08;;;;;;;8.57;4.57;;;14.50;57.40;;;;;;4991985;28;20577;-57
2022/09/24 05:29:37;;;;;;;6.68;4.45;;;14.40;57.40;;;;;;4992733;28;20054;-57
2022/09/24 05:32:06;;;;;;;7.10;4.60;;;14.50;57.50;;;;;;4989782;28;20438;-56
2022/09/24 05:34:33;;;;;;;8.10;4.38;;;14.40;57.50;;;;;;4985735;28;20074;-56
2022/09/24 05:37:03;;;;;;;6.97;4.32;;;14.50;57.60;;;;;;4985733;28;20058;-57
2022/09/24 05:39:30;;;;;;;6.93;4.88;;;14.40;57.60;;;;;;4990765;28;20061;-57
2022/09/24 05:41:58;;;;;;;12.73;7.22;;;14.50;57.60;;;;;;4988619;28;20042;-55
2022/09/24 05:44:25;;;;;;;53.58;26.60;;;14.50;57.60;;;;;;4986598;28;20069;-55
2022/09/24 05:46:52;;;;;;;21.23;10.95;;;14.50;57.60;;;;;;4986588;28;20062;-57
2022/09/24 05:49:20;;;;;;;9.90;6.10;;;14.50;57.60;;;;;;4988628;28;20049;-56
2022/09/24 05:51:49;;;;;;;14.00;5.28;;;14.50;57.50;;;;;;4985481;28;20061;-49
2022/09/24 05:54:18;;;;;;;6.43;4.32;;;14.50;57.60;;;;;;4989171;28;20066;-56
2022/09/24 05:56:46;;;;;;;7.63;4.25;;;14.50;57.60;;;;;;4988252;28;20050;-57
2022/09/24 05:59:13;;;;;;;8.90;4.10;;;14.50;57.50;;;;;;4987271;28;20402;-53
2022/09/24 06:01:40;;;;;;;8.73;4.45;;;14.50;57.60;;;;;;4981432;28;20061;-55
2022/09/24 06:04:09;;;;;;;9.13;5.70;;;14.50;57.60;;;;;;4987268;28;20053;-56
2022/09/24 06:06:36;;;;;;;7.13;4.90;;;14.50;57.70;;;;;;4987453;28;20124;-56
2022/09/24 06:09:04;;;;;;;6.68;4.65;;;14.50;57.70;;;;;;4990867;28;20051;-56
2022/09/24 06:11:34;;;;;;;5.88;4.32;;;14.50;57.80;;;;;;4990163;28;20058;-55
2022/09/24 06:14:03;;;;;;;9.77;5.00;;;14.50;57.80;;;;;;4984357;28;20050;-50
2022/09/24 06:16:33;;;;;;;5.55;4.63;;;14.50;57.70;;;;;;4986596;28;20058;-56
2022/09/24 06:19:00;;;;;;;6.22;4.30;;;14.60;57.90;;;;;;4988263;28;20050;-51
2022/09/24 06:21:27;;;;;;;6.95;4.32;;;14.50;57.80;;;;;;4989238;28;20273;-55
2022/09/24 06:23:54;;;;;;;6.90;4.78;;;14.50;57.80;;;;;;4990672;28;20521;-55
2022/09/24 06:26:22;;;;;;;7.00;4.72;;;14.60;57.90;;;;;;4990150;28;20054;-56
2022/09/24 06:28:50;;;;;;;8.32;4.95;;;14.60;58.40;;;;;;4989881;28;20054;-57
2022/09/24 06:31:17;;;;;;;8.05;5.45;;;14.60;57.90;;;;;;4988263;28;20058;-54
2022/09/24 06:33:45;;;;;;;9.23;4.28;;;14.60;57.90;;;;;;4987525;28;20441;-57
2022/09/24 06:36:12;;;;;;;6.50;4.35;;;14.60;57.90;;;;;;4987411;28;20066;-56
2022/09/24 06:38:40;;;;;;;7.50;4.78;;;14.60;57.90;;;;;;4989763;28;20062;-57
2022/09/24 06:41:08;;;;;;;7.68;4.50;;;14.70;58.00;;;;;;4990198;28;20046;-55
2022/09/24 06:43:36;;;;;;;6.13;4.45;;;14.70;58.10;;;;;;4988996;28;20061;-53
2022/09/24 06:46:06;;;;;;;6.00;3.97;;;14.70;58.10;;;;;;4989484;28;20062;-57
2022/09/24 06:48:33;;;;;;;8.27;5.03;;;14.70;58.10;;;;;;4988960;28;20054;-57
2022/09/24 06:51:00;;;;;;;7.20;4.32;;;14.70;58.10;;;;;;4987077;28;20050;-57
2022/09/24 06:53:28;;;;;;;7.85;4.40;;;14.80;58.10;;;;;;4988306;28;20089;-54
2022/09/24 06:55:58;;;;;;;5.00;3.97;;;14.80;58.10;;;;;;4986608;28;20054;-55
2022/09/24 06:58:26;;;;;;;6.30;4.25;;;14.80;58.00;;;;;;4988031;28;20054;-55
2022/09/24 07:00:57;;;;;;;9.65;5.18;;;14.80;58.00;;;;;;4987451;28;20061;-53
2022/09/24 07:03:26;;;;;;;6.00;4.30;;;14.90;58.10;;;;;;4989656;28;20050;-56
2022/09/24 07:05:54;;;;;;;6.80;4.00;;;14.90;58.10;;;;;;4986465;28;20502;-57
2022/09/24 07:08:21;;;;;;;6.68;4.28;;;14.90;58.10;;;;;;4986355;28;20053;-54
2022/09/24 07:10:49;;;;;;;10.05;4.00;;;14.90;58.10;;;;;;4987482;28;20051;-55
2022/09/24 07:13:16;;;;;;;5.75;4.20;;;15.00;58.20;;;;;;4990293;28;20061;-57
2022/09/24 07:15:44;;;;;;;5.97;4.70;;;15.00;58.10;;;;;;4989345;28;20061;-57
2022/09/24 07:18:12;;;;;;;6.72;4.20;;;15.00;58.10;;;;;;4988382;28;20058;-56
2022/09/24 07:20:41;;;;;;;6.43;4.38;;;15.10;58.20;;;;;;4989084;28;20069;-53
2022/09/24 07:23:11;;;;;;;6.18;4.50;;;15.10;58.20;;;;;;4986026;28;20069;-57
2022/09/24 07:25:38;;;;;;;8.32;4.55;;;15.10;58.20;;;;;;4989338;28;20073;-56
2022/09/24 07:28:08;;;;;;;6.25;4.38;;;15.10;58.10;;;;;;4988726;28;20054;-56
2022/09/24 07:30:36;;;;;;;7.90;4.68;;;15.20;58.10;;;;;;4986088;28;20057;-56
2022/09/24 07:33:04;;;;;;;6.38;4.63;;;15.20;58.00;;;;;;4989978;28;20073;-57
2022/09/24 07:35:31;;;;;;;5.78;4.55;;;15.30;58.00;;;;;;4989565;28;20054;-56
2022/09/24 07:38:02;;;;;;;5.88;4.03;;;15.30;58.00;;;;;;4990570;28;20058;-56
2022/09/24 07:40:30;;;;;;;7.57;4.93;;;15.30;58.00;;;;;;4991058;28;20511;-56
2022/09/24 07:42:58;;;;;;;6.18;4.43;;;15.30;58.00;;;;;;4990255;28;20065;-57
2022/09/24 07:45:28;;;;;;;6.32;4.82;;;15.40;58.00;;;;;;4985650;28;20057;-57
2022/09/24 07:47:59;;;;;;;7.95;4.65;;;15.40;57.90;;;;;;4990932;28;20057;-52
2022/09/24 07:50:27;;;;;;;7.25;4.70;;;15.40;57.90;;;;;;4991306;28;20053;-57
2022/09/24 07:52:55;;;;;;;11.23;4.57;;;15.50;57.90;;;;;;4990179;28;20546;-57
2022/09/24 07:55:24;;;;;;;7.50;4.70;;;15.50;57.80;;;;;;4990819;28;20054;-56
2022/09/24 07:57:53;;;;;;;7.53;4.22;;;15.50;57.80;;;;;;4991440;28;20050;-57
2022/09/24 08:00:22;;;;;;;7.38;5.05;;;15.50;57.80;;;;;;4988737;28;20050;-56
2022/09/24 08:02:50;;;;;;;6.20;4.75;;;15.60;57.80;;;;;;4990558;28;20407;-56
2022/09/24 08:05:18;;;;;;;6.63;4.57;;;15.60;57.80;;;;;;4989088;28;20598;-57
2022/09/24 08:07:51;;;;;;;6.72;4.18;;;15.60;57.80;;;;;;4991454;28;20572;-57
2022/09/24 08:10:19;;;;;;;5.93;4.38;;;15.60;57.80;;;;;;4991304;28;20074;-53
2022/09/24 08:12:47;;;;;;;7.28;4.40;;;15.70;57.80;;;;;;4991102;28;20058;-56
2022/09/24 08:15:15;;;;;;;5.55;3.95;;;15.70;57.70;;;;;;4988456;28;20058;-57
2022/09/24 08:17:42;;;;;;;10.15;4.30;;;15.70;57.70;;;;;;4991536;28;20062;-57
2022/09/24 08:20:11;;;;;;;6.45;4.25;;;15.70;57.70;;;;;;4992663;28;20058;-57
2022/09/24 08:22:38;;;;;;;6.88;4.45;;;15.80;57.80;;;;;;4995123;28;20058;-56
2022/09/24 08:25:05;;;;;;;7.75;4.53;;;15.80;57.80;;;;;;4994156;28;20065;-55
2022/09/24 08:27:36;;;;;;;5.93;4.22;;;15.80;57.80;;;;;;4996061;28;20066;-54
2022/09/24 08:30:06;;;;;;;6.13;4.50;;;15.90;57.80;;;;;;4990824;28;20058;-57
2022/09/24 08:32:33;;;;;;;8.07;4.68;;;15.90;57.80;;;;;;4994525;28;20058;-57
2022/09/24 08:35:00;;;;;;;5.88;4.30;;;15.90;57.70;;;;;;4993835;28;20058;-56
2022/09/24 08:37:28;;;;;;;6.68;5.00;;;16.00;57.80;;;;;;4996342;28;20059;-56
2022/09/24 08:39:55;;;;;;;9.35;4.70;;;16.00;57.80;;;;;;4996387;28;20525;-56
2022/09/24 08:42:35;;;;;;;10.05;4.90;;;16.00;57.80;;;;;;4994317;28;20058;-57
2022/09/24 08:47:55;;;;;;;15.57;5.05;;;16.10;57.90;;;;;;5001076;28;20065;-57
2022/09/24 08:50:25;;;;;;;6.05;4.63;;;16.20;58.00;;;;;;4996339;28;20046;-57
2022/09/24 08:53:06;;;;;;;6.82;4.95;;;16.20;58.10;;;;;;4995090;28;20050;-57
2022/09/24 08:55:39;;;;;;;11.15;5.43;;;16.30;58.30;;;;;;4993834;28;20065;-55
2022/09/24 08:58:25;;;;;;;6.93;4.38;;;16.30;58.30;;;;;;4995383;28;20517;-57
2022/09/24 09:00:58;;;;;;;8.15;4.80;;;16.40;58.30;;;;;;4994239;28;20058;-56
2022/09/24 09:03:35;;;;;;;8.27;5.15;;;16.50;58.20;;;;;;4994119;28;20059;-54
2022/09/24 09:06:05;;;;;;;6.63;4.68;;;16.50;58.10;;;;;;4993295;28;20081;-57
2022/09/24 09:08:41;;;;;;;7.47;4.93;;;16.60;58.10;;;;;;4997540;28;20046;-57
2022/09/24 09:11:12;;;;;;;10.93;4.63;;;16.60;58.00;;;;;;4996414;28;20051;-56
2022/09/24 09:13:45;;;;;;;9.13;4.93;;;16.70;58.00;;;;;;4994720;28;20047;-55
2022/09/24 09:16:21;;;;;;;8.23;5.13;;;16.80;58.00;;;;;;4994636;28;20062;-57
2022/09/24 09:18:53;;;;;;;8.40;4.57;;;16.80;57.90;;;;;;4997075;28;20430;-56
2022/09/24 09:21:29;;;;;;;8.23;4.85;;;16.90;57.90;;;;;;4999023;28;20061;-56
2022/09/24 09:23:59;;;;;;;8.13;5.15;;;16.90;57.70;;;;;;4995820;28;20065;-55
2022/09/24 09:26:26;;;;;;;6.50;4.60;;;17.00;57.70;;;;;;4995666;28;20058;-53
2022/09/24 09:28:58;;;;;;;7.43;5.03;;;17.10;57.60;;;;;;4993726;28;20050;-55
2022/09/24 09:31:36;;;;;;;7.15;4.63;;;17.10;57.50;;;;;;4996337;28;20050;-57
2022/09/24 09:34:21;;;;;;;7.38;5.00;;;17.20;57.50;;;;;;4994210;28;20062;-56
2022/09/24 09:36:59;;;;;;;7.80;4.93;;;17.20;57.50;;;;;;4991749;28;20070;-55
2022/09/24 09:39:39;;;;;;;9.18;4.90;;;17.30;57.40;;;;;;4993861;28;20054;-54
2022/09/24 09:42:26;;;;;;;10.15;5.15;;;17.30;57.30;;;;;;4994309;28;20050;-52
2022/09/24 09:44:54;;;;;;;8.40;5.90;;;17.40;57.20;;;;;;4991780;28;20058;-56
2022/09/24 09:47:30;;;;;;;9.65;5.03;;;17.50;57.00;;;;;;4995979;28;20058;-55
2022/09/24 09:50:04;;;;;;;9.77;5.68;;;17.50;57.10;;;;;;4995532;28;20054;-57
2022/09/24 09:52:37;;;;;;;9.95;5.03;;;17.50;57.00;;;;;;4993372;28;20050;-57
2022/09/24 09:55:05;;;;;;;8.75;5.20;;;17.60;56.70;;;;;;4994013;28;20061;-56
2022/09/24 09:57:35;;;;;;;9.30;5.60;;;17.70;56.60;;;;;;4991489;28;20061;-56
2022/09/24 10:00:03;;;;;;;9.82;5.53;;;17.70;56.40;;;;;;4990136;28;20508;-57
2022/09/24 10:02:33;;;;;;;8.70;5.10;;;17.80;56.40;;;;;;4991010;28;20054;-53
2022/09/24 10:05:05;;;;;;;10.30;5.55;;;17.90;56.20;;;;;;4992908;28;20065;-56
2022/09/24 10:07:44;;;;;;;8.70;5.47;;;17.90;56.00;;;;;;4992970;28;20050;-57
2022/09/24 10:10:18;;;;;;;10.48;5.60;;;18.00;55.70;;;;;;4992761;28;20059;-57
2022/09/24 10:12:45;;;;;;;9.25;4.85;;;18.00;55.70;;;;;;4990242;28;20057;-56
2022/09/24 10:15:18;;;;;;;8.10;5.70;;;18.10;55.60;;;;;;4988790;28;20062;-57
2022/09/24 10:17:47;;;;;;;8.32;5.55;;;18.10;55.40;;;;;;4992729;28;20051;-56
2022/09/24 10:20:21;;;;;;;10.13;5.65;;;18.10;55.20;;;;;;4990305;28;20062;-56
2022/09/24 10:22:51;;;;;;;6.78;4.50;;;18.20;55.00;;;;;;4986265;28;20069;-56
2022/09/24 10:25:25;;;;;;;6.18;4.18;;;18.30;55.10;;;;;;4982532;28;20050;-56
2022/09/24 10:27:54;;;;;;;7.63;4.70;;;18.20;55.10;;;;;;4988058;28;20058;-56
2022/09/24 10:30:32;;;;;;;8.68;5.18;;;18.30;54.90;;;;;;4987960;28;20062;-57
2022/09/24 10:33:01;;;;;;;7.88;4.97;;;18.30;54.90;;;;;;4984113;28;20050;-49
2022/09/24 10:35:34;;;;;;;6.57;4.18;;;18.30;54.80;;;;;;4987621;28;20050;-56
2022/09/24 10:38:14;;;;;;;7.50;4.80;;;18.40;54.90;;;;;;4985220;28;20054;-53
2022/09/24 10:40:41;;;;;;;13.15;5.20;;;18.40;54.70;;;;;;4988227;28;20387;-57
2022/09/24 10:43:17;;;;;;;8.10;4.82;;;18.50;54.60;;;;;;4983555;28;20054;-56
2022/09/24 10:46:11;;;;;;;5.95;4.75;;;18.50;54.50;;;;;;4982075;28;20058;-57
2022/09/24 10:48:44;;;;;;;10.23;4.82;;;18.50;54.40;;;;;;4991077;28;20069;-56
2022/09/24 10:51:25;;;;;;;8.35;4.80;;;18.50;54.50;;;;;;4987298;28;20069;-52
2022/09/24 10:53:59;;;;;;;7.90;4.50;;;18.50;54.30;;;;;;4986037;28;20069;-56
2022/09/24 10:56:32;;;;;;;11.18;4.68;;;18.60;54.00;;;;;;4986758;28;20494;-58
2022/09/24 10:59:31;;;;;;;8.52;4.05;;;18.60;54.00;;;;;;4984911;28;20062;-54
2022/09/24 11:02:20;;;;;;;10.40;4.95;;;18.60;53.60;;;;;;4985235;28;20254;-54
2022/09/24 11:04:51;;;;;;;7.57;4.80;;;18.70;52.90;;;;;;4986869;28;20050;-53
2022/09/24 11:07:44;;;;;;;8.52;4.72;;;18.70;53.00;;;;;;4993544;28;20058;-57
2022/09/24 11:10:29;;;;;;;8.40;4.82;;;18.70;52.90;;;;;;4991549;28;20069;-56
2022/09/24 11:13:08;;;;;;;10.18;5.25;;;18.70;53.10;;;;;;4989613;28;20046;-56
2022/09/24 11:15:54;;;;;;;10.63;5.50;;;18.70;53.20;;;;;;4986863;28;20054;-54
2022/09/24 11:18:36;;;;;;;12.20;6.57;;;18.70;53.40;;;;;;4984514;28;20050;-56
2022/09/24 11:21:12;;;;;;;8.68;5.82;;;18.80;54.00;;;;;;4981755;28;20046;-56
2022/09/24 11:24:00;;;;;;;9.30;5.78;;;18.80;54.00;;;;;;4991026;28;20069;-57
2022/09/24 11:26:36;;;;;;;10.88;6.25;;;18.80;54.60;;;;;;4985913;28;20050;-57
2022/09/24 11:29:27;;;;;;;8.68;6.13;;;18.80;54.00;;;;;;4990561;28;20054;-55
2022/09/24 11:32:05;;;;;;;9.55;5.63;;;18.80;54.10;;;;;;4982007;28;20049;-54
2022/09/24 11:34:50;;;;;;;11.43;5.38;;;18.80;54.10;;;;;;4992237;28;20085;-56
2022/09/24 11:37:30;;;;;;;9.63;6.50;;;18.80;54.30;;;;;;4994060;28;20058;-55
2022/09/24 11:40:13;;;;;;;10.55;6.30;;;18.80;54.00;;;;;;4995880;28;20065;-54
2022/09/24 11:42:52;;;;;;;13.32;6.00;;;18.80;53.90;;;;;;4992505;28;20049;-53
2022/09/24 11:45:47;;;;;;;10.82;6.03;;;18.80;53.80;;;;;;4989992;28;20096;-53
2022/09/24 11:48:34;;;;;;;11.73;6.07;;;18.80;53.80;;;;;;4996345;28;20084;-57
2022/09/24 11:51:13;;;;;;;11.63;5.90;;;18.80;53.50;;;;;;4997314;28;20065;-55
2022/09/24 11:53:45;;;;;;;9.77;5.63;;;18.80;53.50;;;;;;4994108;28;20386;-56
2022/09/24 11:56:18;;;;;;;11.45;5.75;;;18.80;53.80;;;;;;4994438;28;20054;-57
2022/09/24 11:58:49;;;;;;;9.98;6.10;;;18.70;53.60;;;;;;4995273;28;20062;-57
2022/09/24 12:01:20;;;;;;;9.70;5.88;;;18.80;53.60;;;;;;4993630;28;20509;-54
2022/09/24 12:03:55;;;;;;;8.65;4.93;;;18.80;53.50;;;;;;4993617;28;20058;-56
2022/09/24 12:06:30;;;;;;;11.07;4.68;;;18.80;53.60;;;;;;4993064;28;20058;-56
2022/09/24 12:09:00;;;;;;;;;;;18.90;53.80;;;;;;4994260;28;20082;-53
2022/09/24 12:11:34;;;;;;;13.65;5.80;;;18.90;53.80;;;;;;4992379;28;19993;-56
2022/09/24 12:14:09;;;;;;;12.68;5.40;;;19.00;52.20;;;;;;4992640;28;20066;-56
2022/09/24 12:16:39;;;;;;;13.43;5.25;;;19.00;51.40;;;;;;4991059;28;20054;-54
2022/09/24 12:19:14;;;;;;;9.00;4.80;;;19.00;50.80;;;;;;4995937;28;20066;-54
2022/09/24 12:21:44;;;;;;;7.88;5.38;;;19.00;50.40;;;;;;4992600;28;20069;-57
2022/09/24 12:24:17;;;;;;;18.85;6.68;;;19.00;50.50;;;;;;4990086;28;20050;-52
2022/09/24 12:26:46;;;;;;;10.48;6.25;;;19.00;50.60;;;;;;4990419;28;20054;-57
2022/09/24 12:35:21;;;;;;;18.75;5.53;;;19.00;50.90;;;;;;4998288;28;20065;-56
2022/09/24 12:37:55;;;;;;;14.82;4.93;;;19.00;50.30;;;;;;4992627;28;20054;-57
2022/09/24 12:40:40;;;;;;;9.03;4.80;;;18.90;50.00;;;;;;4991950;28;20054;-53
2022/09/24 12:43:18;;;;;;;15.95;5.13;;;18.90;50.30;;;;;;4989461;28;20058;-56
2022/09/24 12:45:46;;;;;;;9.85;5.28;;;18.90;51.00;;;;;;4990357;28;20066;-56
2022/09/24 12:48:16;;;;;;;9.00;4.72;;;18.90;51.00;;;;;;4990697;28;20057;-57
2022/09/24 12:50:55;;;;;;;9.63;5.30;;;18.90;50.90;;;;;;4991953;28;20070;-57
2022/09/24 12:53:26;;;;;;;10.68;5.43;;;18.90;51.00;;;;;;4992645;28;20054;-57
2022/09/24 12:55:59;;;;;;;11.85;5.63;;;18.90;51.10;;;;;;4990247;28;20057;-54
2022/09/24 12:58:30;;;;;;;10.20;5.15;;;19.00;51.20;;;;;;4991283;28;20522;-57
2022/09/24 13:01:27;;;;;;;9.35;6.35;;;19.00;51.30;;;;;;4990504;28;20061;-57
2022/09/24 13:04:04;;;;;;;11.20;5.78;;;19.00;50.60;;;;;;4990292;28;20054;-54
2022/09/24 13:06:34;;;;;;;8.65;5.75;;;19.00;50.80;;;;;;4992429;28;20058;-57
2022/09/24 13:09:03;;;;;;;15.15;7.13;;;19.00;51.00;;;;;;4992423;28;20051;-57
2022/09/24 13:11:35;;;;;;;10.27;6.22;;;19.00;51.10;;;;;;4992534;28;20057;-55
2022/09/24 13:14:21;;;;;;;11.07;6.43;;;19.00;51.00;;;;;;4992435;28;20063;-57
2022/09/24 13:16:52;;;;;;;10.75;5.85;;;19.00;51.20;;;;;;4991528;28;20054;-57
2022/09/24 13:19:27;;;;;;;12.07;6.90;;;18.90;51.60;;;;;;4990525;28;20533;-58
2022/09/24 13:21:57;;;;;;;10.38;6.32;;;18.90;51.90;;;;;;4991174;28;20050;-57